Aviation Digital Data Service (ADDS)

Output produced by METARs form (1914 UTC 09 December 2016)
found at http://aviationweather.gov/adds/metars/
 
KBAF 091725Z 0918/1018 31013G26KT P6SM BKN040 
     FM100000 31008KT P6SM SCT250